createdAt,value
2023-02-02T00:00:01.976Z,84.463
2023-02-02T00:01:01.688Z,84.816
2023-02-02T00:02:02.339Z,84.496
2023-02-02T00:03:02.308Z,85.194
2023-02-02T00:04:02.288Z,86.071
2023-02-02T00:05:02.212Z,86.948
2023-02-02T00:06:01.959Z,86.922
2023-02-02T00:07:01.757Z,87.355
2023-02-02T00:08:01.682Z,88.123
2023-02-02T00:09:02.550Z,87.929
2023-02-02T00:10:02.338Z,88.308
2023-02-02T00:11:02.067Z,88.600
2023-02-02T00:12:01.789Z,88.474
2023-02-02T00:13:01.578Z,88.358
2023-02-02T00:14:02.378Z,88.884
2023-02-02T00:15:02.030Z,88.656
2023-02-02T00:16:02.059Z,88.842
2023-02-02T00:17:01.851Z,89.031
2023-02-02T00:18:01.635Z,89.087
2023-02-02T00:19:02.330Z,89.260
2023-02-02T00:20:02.146Z,89.323
2023-02-02T00:21:01.866Z,89.592
2023-02-02T00:22:01.594Z,89.619
2023-02-02T00:23:02.243Z,89.937
2023-02-02T00:24:02.102Z,89.880
2023-02-02T00:25:01.908Z,90.082
2023-02-02T00:26:01.627Z,89.991
2023-02-02T00:27:01.645Z,90.033
2023-02-02T00:28:01.440Z,89.914
2023-02-02T00:29:02.274Z,90.115
2023-02-02T00:30:01.999Z,90.221
2023-02-02T00:31:01.928Z,90.448
2023-02-02T00:32:04.703Z,90.513
2023-02-02T00:33:02.452Z,90.876
2023-02-02T00:34:02.195Z,91.162
2023-02-02T00:35:02.047Z,91.379
2023-02-02T00:36:01.808Z,91.240
2023-02-02T00:37:01.678Z,90.935
2023-02-02T00:38:01.438Z,91.219
2023-02-02T00:39:02.178Z,91.114
2023-02-02T00:40:02.038Z,91.063
2023-02-02T00:41:01.825Z,91.478
2023-02-02T00:42:01.706Z,91.528
2023-02-02T00:43:01.590Z,91.936
2023-02-02T00:44:02.462Z,92.106
2023-02-02T00:45:02.462Z,91.908
2023-02-02T00:46:02.524Z,92.264
2023-02-02T00:47:02.456Z,92.526
2023-02-02T00:48:02.347Z,92.528
2023-02-02T00:49:02.363Z,92.636
2023-02-02T00:50:02.157Z,92.901
2023-02-02T00:51:02.066Z,93.048
2023-02-02T00:52:01.838Z,93.226
2023-02-02T00:53:01.546Z,93.269
2023-02-02T00:54:02.240Z,93.298
2023-02-02T00:55:01.832Z,93.132
2023-02-02T00:56:01.667Z,93.212
2023-02-02T00:57:01.386Z,93.277
2023-02-02T00:58:01.997Z,93.308
2023-02-02T00:59:01.634Z,93.405
2023-02-02T01:00:02.303Z,93.619
2023-02-02T01:01:02.114Z,93.718
2023-02-02T01:02:02.579Z,93.821
2023-02-02T01:03:01.635Z,93.796
2023-02-02T01:04:01.426Z,93.861
2023-02-02T01:05:02.355Z,93.840
2023-02-02T01:06:02.135Z,93.941
2023-02-02T01:07:01.970Z,93.878
2023-02-02T01:08:01.635Z,94.002
2023-02-02T01:09:01.746Z,93.956
2023-02-02T01:10:01.622Z,93.882
2023-02-02T01:11:02.258Z,93.979
2023-02-02T01:12:02.145Z,94.034
2023-02-02T01:13:01.968Z,94.128
2023-02-02T01:14:01.656Z,94.099
2023-02-02T01:15:02.466Z,94.132
2023-02-02T01:16:02.316Z,94.153
2023-02-02T01:17:02.295Z,94.250
2023-02-02T01:18:01.990Z,94.278
2023-02-02T01:19:01.751Z,94.353
2023-02-02T01:20:01.663Z,94.406
2023-02-02T01:21:01.684Z,94.443
2023-02-02T01:22:03.436Z,94.324
2023-02-02T01:23:01.751Z,94.439
2023-02-02T01:24:01.820Z,94.484
2023-02-02T01:25:01.513Z,94.542
2023-02-02T01:26:02.357Z,94.483
2023-02-02T01:27:02.283Z,94.525
2023-02-02T01:28:03.148Z,94.528
2023-02-02T01:29:01.960Z,94.540
2023-02-02T01:30:01.676Z,94.502
2023-02-02T01:31:02.401Z,94.587
2023-02-02T01:32:02.468Z,94.580
2023-02-02T01:33:02.357Z,94.677
2023-02-02T01:34:02.346Z,94.690
2023-02-02T01:35:02.371Z,94.706
2023-02-02T01:36:02.118Z,94.752
2023-02-02T01:37:01.918Z,94.675
2023-02-02T01:38:01.598Z,94.727
2023-02-02T01:39:02.527Z,94.734
2023-02-02T01:40:01.719Z,94.793
2023-02-02T01:41:01.489Z,94.774
2023-02-02T01:42:01.548Z,94.818
2023-02-02T01:43:02.359Z,94.824
2023-02-02T01:44:02.410Z,94.820
2023-02-02T01:45:02.278Z,94.841
2023-02-02T01:46:02.355Z,94.872
2023-02-02T01:47:02.098Z,94.795
2023-02-02T01:48:01.824Z,94.891
2023-02-02T01:49:01.598Z,94.895
2023-02-02T01:50:01.582Z,94.896
2023-02-02T01:51:02.331Z,94.830
2023-02-02T01:52:02.111Z,94.847
2023-02-02T01:53:04.375Z,94.858
2023-02-02T01:54:02.269Z,94.732
2023-02-02T01:55:02.147Z,94.689
2023-02-02T01:56:01.948Z,94.687
2023-02-02T01:57:01.577Z,94.704
2023-02-02T01:58:02.347Z,94.824
2023-02-02T01:59:02.015Z,94.715
2023-02-02T02:00:01.881Z,94.816
2023-02-02T02:01:02.012Z,94.795
2023-02-02T02:02:02.090Z,94.870
2023-02-02T02:03:02.018Z,94.824
2023-02-02T02:04:01.818Z,94.744
2023-02-02T02:05:01.602Z,94.797
2023-02-02T02:06:01.938Z,94.807
2023-02-02T02:07:01.784Z,94.757
2023-02-02T02:08:01.579Z,94.753
2023-02-02T02:09:01.726Z,94.704
2023-02-02T02:10:01.681Z,94.734
2023-02-02T02:11:01.586Z,94.763
2023-02-02T02:12:01.757Z,94.822
2023-02-02T02:13:01.810Z,94.845
2023-02-02T02:14:01.658Z,94.834
2023-02-02T02:15:01.586Z,94.891
2023-02-02T02:16:01.507Z,94.921
2023-02-02T02:17:01.902Z,94.956
2023-02-02T02:18:01.834Z,94.921
2023-02-02T02:19:01.695Z,94.896
2023-02-02T02:20:01.721Z,94.919
2023-02-02T02:21:01.450Z,94.946
2023-02-02T02:22:02.463Z,94.954
2023-02-02T02:23:02.487Z,94.916
2023-02-02T02:24:02.263Z,94.969
2023-02-02T02:25:02.040Z,94.969
2023-02-02T02:26:01.812Z,94.977
2023-02-02T02:27:01.811Z,94.990
2023-02-02T02:28:02.683Z,95.030
2023-02-02T02:29:02.454Z,95.099
2023-02-02T02:30:02.263Z,95.080
2023-02-02T02:31:02.508Z,95.156
2023-02-02T02:32:01.922Z,95.127
2023-02-02T02:33:01.921Z,95.156
2023-02-02T02:34:01.922Z,95.169
2023-02-02T02:35:01.964Z,95.190
2023-02-02T02:36:02.002Z,95.226
2023-02-02T02:37:02.197Z,95.177
2023-02-02T02:38:02.048Z,95.192
2023-02-02T02:39:01.943Z,95.249
2023-02-02T02:40:02.450Z,95.223
2023-02-02T02:41:02.402Z,95.259
2023-02-02T02:42:02.506Z,95.265
2023-02-02T02:43:02.459Z,95.310
2023-02-02T02:44:01.492Z,95.255
2023-02-02T02:45:01.479Z,95.232
2023-02-02T02:46:02.403Z,95.303
2023-02-02T02:47:02.242Z,95.276
2023-02-02T02:48:02.063Z,95.301
2023-02-02T02:49:02.007Z,95.303
2023-02-02T02:50:01.829Z,95.322
2023-02-02T02:51:02.044Z,95.307
2023-02-02T02:52:02.112Z,95.356
2023-02-02T02:53:01.854Z,95.324
2023-02-02T02:54:01.760Z,95.335
2023-02-02T02:55:01.472Z,95.377
2023-02-02T02:56:02.252Z,95.379
2023-02-02T02:57:02.055Z,95.392
2023-02-02T02:58:01.922Z,95.368
2023-02-02T02:59:01.944Z,95.394
2023-02-02T03:00:01.912Z,95.390
2023-02-02T03:01:02.138Z,95.408
2023-02-02T03:02:02.582Z,95.366
2023-02-02T03:03:01.934Z,95.352
2023-02-02T03:04:01.668Z,95.383
2023-02-02T03:05:02.535Z,95.335
2023-02-02T03:06:01.855Z,95.354
2023-02-02T03:07:01.622Z,95.360
2023-02-02T03:08:01.561Z,95.394
2023-02-02T03:09:01.738Z,95.310
2023-02-02T03:10:01.560Z,95.358
2023-02-02T03:11:02.644Z,95.377
2023-02-02T03:12:01.658Z,95.394
2023-02-02T03:13:01.447Z,95.408
2023-02-02T03:14:02.283Z,95.371
2023-02-02T03:15:02.275Z,95.385
2023-02-02T03:16:02.168Z,95.446
2023-02-02T03:17:02.019Z,95.432
2023-02-02T03:18:01.993Z,95.394
2023-02-02T03:19:01.875Z,95.358
2023-02-02T03:20:01.550Z,95.452
2023-02-02T03:21:01.475Z,95.387
2023-02-02T03:22:02.475Z,95.413
2023-02-02T03:23:02.467Z,95.371
2023-02-02T03:24:02.313Z,95.366
2023-02-02T03:25:02.128Z,95.432
2023-02-02T03:26:01.976Z,95.410
2023-02-02T03:27:02.083Z,95.396
2023-02-02T03:28:02.006Z,95.373
2023-02-02T03:29:04.363Z,95.398
2023-02-02T03:30:02.377Z,95.431
2023-02-02T03:31:02.532Z,95.366
2023-02-02T03:32:01.447Z,95.436
2023-02-02T03:33:02.263Z,95.455
2023-02-02T03:34:02.522Z,95.431
2023-02-02T03:35:02.426Z,95.404
2023-02-02T03:36:02.493Z,95.375
2023-02-02T03:37:02.509Z,95.362
2023-02-02T03:38:02.308Z,95.350
2023-02-02T03:39:02.282Z,95.322
2023-02-02T03:40:02.054Z,95.375
2023-02-02T03:41:02.248Z,95.398
2023-02-02T03:42:02.178Z,95.347
2023-02-02T03:43:01.944Z,95.364
2023-02-02T03:44:01.784Z,95.369
2023-02-02T03:45:01.495Z,95.358
2023-02-02T03:46:01.533Z,95.425
2023-02-02T03:47:01.728Z,95.358
2023-02-02T03:48:01.872Z,95.286
2023-02-02T03:49:01.899Z,95.303
2023-02-02T03:50:01.684Z,95.251
2023-02-02T03:51:01.549Z,95.278
2023-02-02T03:52:01.648Z,95.318
2023-02-02T03:53:01.444Z,95.186
2023-02-02T03:54:02.135Z,95.099
2023-02-02T03:55:01.931Z,95.095
2023-02-02T03:56:02.018Z,95.059
2023-02-02T03:57:01.898Z,95.099
2023-02-02T03:58:02.018Z,94.999
2023-02-02T03:59:01.702Z,95.041
2023-02-02T04:00:01.573Z,95.030
2023-02-02T04:01:01.482Z,95.028
2023-02-02T04:02:01.634Z,95.198
2023-02-02T04:03:01.733Z,95.257
2023-02-02T04:04:01.558Z,95.268
2023-02-02T04:05:01.466Z,95.347
2023-02-02T04:06:02.328Z,95.205
2023-02-02T04:07:02.339Z,95.284
2023-02-02T04:08:02.287Z,95.293
2023-02-02T04:09:02.038Z,95.303
2023-02-02T04:10:01.813Z,95.308
2023-02-02T04:11:01.850Z,95.404
2023-02-02T04:12:01.714Z,95.339
2023-02-02T04:13:02.367Z,95.349
2023-02-02T04:14:02.112Z,95.350
2023-02-02T04:15:01.873Z,95.368
2023-02-02T04:16:04.342Z,95.440
2023-02-02T04:17:06.065Z,95.419
2023-02-02T04:18:06.398Z,95.394
2023-02-02T04:19:03.447Z,95.305
2023-02-02T04:20:02.449Z,95.310
2023-02-02T04:21:02.294Z,95.308
2023-02-02T04:22:02.299Z,95.278
2023-02-02T04:23:02.192Z,95.310
2023-02-02T04:24:02.214Z,95.324
2023-02-02T04:25:02.192Z,95.331
2023-02-02T04:26:02.566Z,95.366
2023-02-02T04:27:01.700Z,95.398
2023-02-02T04:28:01.886Z,95.404
2023-02-02T04:29:01.867Z,95.324
2023-02-02T04:30:02.228Z,95.349
2023-02-02T04:31:02.336Z,95.423
2023-02-02T04:32:01.656Z,95.459
2023-02-02T04:33:01.650Z,95.465
2023-02-02T04:34:01.839Z,95.436
2023-02-02T04:35:01.483Z,95.432
2023-02-02T04:36:02.622Z,95.501
2023-02-02T04:37:01.814Z,95.526
2023-02-02T04:38:02.225Z,95.495
2023-02-02T04:39:02.431Z,95.493
2023-02-02T04:40:02.672Z,95.480
2023-02-02T04:41:01.860Z,95.591
2023-02-02T04:42:01.836Z,95.532
2023-02-02T04:43:01.665Z,95.543
2023-02-02T04:44:01.708Z,95.453
2023-02-02T04:45:03.173Z,95.545
2023-02-02T04:46:02.688Z,95.591
2023-02-02T04:47:01.460Z,95.514
2023-02-02T04:48:02.448Z,95.488
2023-02-02T04:49:01.665Z,95.478
2023-02-02T04:50:01.961Z,95.482
2023-02-02T04:51:02.056Z,95.457
2023-02-02T04:52:02.183Z,95.495
2023-02-02T04:53:02.002Z,95.495
2023-02-02T04:54:01.899Z,95.511
2023-02-02T04:55:02.240Z,95.415
2023-02-02T04:56:02.287Z,95.488
2023-02-02T04:57:02.015Z,95.495
2023-02-02T04:58:01.842Z,95.524
2023-02-02T04:59:01.577Z,95.535
2023-02-02T05:00:02.449Z,95.513
2023-02-02T05:01:02.732Z,95.642
2023-02-02T05:02:01.619Z,95.528
2023-02-02T05:03:02.681Z,95.555
2023-02-02T05:04:01.567Z,95.440
2023-02-02T05:05:01.579Z,95.461
2023-02-02T05:06:02.583Z,95.396
2023-02-02T05:07:02.380Z,95.396
2023-02-02T05:08:02.126Z,95.375
2023-02-02T05:09:02.091Z,95.347
2023-02-02T05:10:01.977Z,95.371
2023-02-02T05:11:01.784Z,95.301
2023-02-02T05:12:01.850Z,95.291
2023-02-02T05:13:01.723Z,95.293
2023-02-02T05:14:01.897Z,95.276
2023-02-02T05:15:02.121Z,95.209
2023-02-02T05:16:02.106Z,95.122
2023-02-02T05:17:02.320Z,95.169
2023-02-02T05:18:02.372Z,95.150
2023-02-02T05:19:02.180Z,95.175
2023-02-02T05:20:02.081Z,95.188
2023-02-02T05:21:01.933Z,95.186
2023-02-02T05:22:01.804Z,95.226
2023-02-02T05:23:01.582Z,95.232
2023-02-02T05:24:01.695Z,95.242
2023-02-02T05:25:01.547Z,95.316
2023-02-02T05:26:01.867Z,95.255
2023-02-02T05:27:02.506Z,95.278
2023-02-02T05:28:02.394Z,95.310
2023-02-02T05:29:02.525Z,95.240
2023-02-02T05:30:01.648Z,95.297
2023-02-02T05:31:01.897Z,95.328
2023-02-02T05:32:02.543Z,95.383
2023-02-02T05:33:02.450Z,95.307
2023-02-02T05:34:02.351Z,95.369
2023-02-02T05:35:02.215Z,95.432
2023-02-02T05:36:01.588Z,95.392
2023-02-02T05:37:01.811Z,95.328
2023-02-02T05:38:01.629Z,95.272
2023-02-02T05:39:01.805Z,95.333
2023-02-02T05:40:01.642Z,95.383
2023-02-02T05:41:01.896Z,95.389
2023-02-02T05:42:01.976Z,95.343
2023-02-02T05:43:01.900Z,95.385
2023-02-02T05:44:01.793Z,95.385
2023-02-02T05:45:01.654Z,95.471
2023-02-02T05:46:02.047Z,95.436
2023-02-02T05:47:02.088Z,95.404
2023-02-02T05:48:02.022Z,95.415
2023-02-02T05:49:01.882Z,95.387
2023-02-02T05:50:01.879Z,95.434
2023-02-02T05:51:02.033Z,95.457
2023-02-02T05:52:01.850Z,95.484
2023-02-02T05:53:01.688Z,95.421
2023-02-02T05:54:02.780Z,95.350
2023-02-02T05:55:01.568Z,95.335
2023-02-02T05:56:01.552Z,95.289
2023-02-02T05:57:02.430Z,95.217
2023-02-02T05:58:02.167Z,95.171
2023-02-02T05:59:01.943Z,95.177
2023-02-02T06:00:01.831Z,95.032
2023-02-02T06:01:01.805Z,95.032
2023-02-02T06:02:01.580Z,95.019
2023-02-02T06:03:01.809Z,94.984
2023-02-02T06:04:02.374Z,94.856
2023-02-02T06:05:01.576Z,94.763
2023-02-02T06:06:02.173Z,94.708
2023-02-02T06:07:02.264Z,94.759
2023-02-02T06:08:02.244Z,94.725
2023-02-02T06:09:01.971Z,94.744
2023-02-02T06:10:01.701Z,94.753
2023-02-02T06:11:01.596Z,94.753
2023-02-02T06:12:01.453Z,94.767
2023-02-02T06:13:02.215Z,94.731
2023-02-02T06:14:05.228Z,94.776
2023-02-02T06:15:02.215Z,94.834
2023-02-02T06:16:02.345Z,94.755
2023-02-02T06:17:02.289Z,94.568
2023-02-02T06:18:02.045Z,94.570
2023-02-02T06:19:01.882Z,94.532
2023-02-02T06:20:01.758Z,94.385
2023-02-02T06:21:01.851Z,94.473
2023-02-02T06:22:01.830Z,94.473
2023-02-02T06:23:01.829Z,94.452
2023-02-02T06:24:02.228Z,94.414
2023-02-02T06:25:02.158Z,94.454
2023-02-02T06:26:02.570Z,94.475
2023-02-02T06:27:01.670Z,94.477
2023-02-02T06:28:01.789Z,94.383
2023-02-02T06:29:01.802Z,94.433
2023-02-02T06:30:01.660Z,94.490
2023-02-02T06:31:03.916Z,94.544
2023-02-02T06:32:02.703Z,94.710
2023-02-02T06:33:01.569Z,94.944
2023-02-02T06:34:02.444Z,94.805
2023-02-02T06:35:02.328Z,94.887
2023-02-02T06:36:07.371Z,94.855
2023-02-02T06:37:02.316Z,94.786
2023-02-02T06:38:02.077Z,94.883
2023-02-02T06:39:02.071Z,94.919
2023-02-02T06:40:01.965Z,94.877
2023-02-02T06:41:01.892Z,94.860
2023-02-02T06:42:20.209Z,94.820
2023-02-02T06:44:01.951Z,94.778
2023-02-02T06:45:01.811Z,94.666
2023-02-02T06:46:01.851Z,94.818
2023-02-02T06:47:02.038Z,94.755
2023-02-02T06:48:02.088Z,94.795
2023-02-02T06:49:02.465Z,94.725
2023-02-02T06:50:02.612Z,94.736
2023-02-02T06:51:01.575Z,94.830
2023-02-02T06:52:02.490Z,94.904
2023-02-02T06:53:02.584Z,95.020
2023-02-02T06:54:02.246Z,94.948
2023-02-02T06:55:01.995Z,94.965
2023-02-02T06:56:02.114Z,95.038
2023-02-02T06:57:01.940Z,95.024
2023-02-02T06:58:01.779Z,95.133
2023-02-02T06:59:01.610Z,95.202
2023-02-02T07:00:02.357Z,95.196
2023-02-02T07:01:02.228Z,95.276
2023-02-02T07:02:02.483Z,95.165
2023-02-02T07:03:02.198Z,95.125
2023-02-02T07:04:02.020Z,95.192
2023-02-02T07:05:01.963Z,95.175
2023-02-02T07:06:02.116Z,95.074
2023-02-02T07:07:01.984Z,95.020
2023-02-02T07:08:01.701Z,94.959
2023-02-02T07:09:04.718Z,95.116
2023-02-02T07:10:01.453Z,95.158
2023-02-02T07:11:14.789Z,95.183
2023-02-02T07:13:09.225Z,95.112
2023-02-02T07:14:09.144Z,95.284
2023-02-02T07:15:09.072Z,95.085
2023-02-02T07:16:09.005Z,94.925
2023-02-02T07:17:09.257Z,94.849
2023-02-02T07:18:09.382Z,94.982
2023-02-02T07:19:09.603Z,95.047
2023-02-02T07:20:09.434Z,94.998
2023-02-02T07:21:08.935Z,94.959
2023-02-02T07:22:09.294Z,94.946
2023-02-02T07:23:09.602Z,95.070
2023-02-02T07:24:08.842Z,94.961
2023-02-02T07:25:08.859Z,94.738
2023-02-02T07:26:08.900Z,94.793
2023-02-02T07:27:09.111Z,94.887
2023-02-02T07:28:09.331Z,94.938
2023-02-02T07:29:09.356Z,95.017
2023-02-02T07:30:09.357Z,94.654
2023-02-02T07:31:09.800Z,94.769
2023-02-02T07:32:09.036Z,94.774
2023-02-02T07:33:08.796Z,94.675
2023-02-02T07:34:08.725Z,94.761
2023-02-02T07:35:08.740Z,94.908
2023-02-02T07:36:09.272Z,94.931
2023-02-02T07:37:09.171Z,94.956
2023-02-02T07:38:08.840Z,95.038
2023-02-02T07:39:08.575Z,95.112
2023-02-02T07:40:08.664Z,95.085
2023-02-02T07:41:08.556Z,95.146
2023-02-02T07:42:08.681Z,95.045
2023-02-02T07:43:08.638Z,95.144
2023-02-02T07:44:08.655Z,95.076
2023-02-02T07:45:24.468Z,95.192
2023-02-02T07:47:08.810Z,95.242
2023-02-02T07:48:09.084Z,95.186
2023-02-02T07:49:08.922Z,95.278
2023-02-02T07:50:08.899Z,95.215
2023-02-02T07:51:08.993Z,95.316
2023-02-02T07:52:09.010Z,95.293
2023-02-02T07:53:08.926Z,95.305
2023-02-02T07:54:08.847Z,95.398
2023-02-02T07:55:14.916Z,95.368
2023-02-02T07:56:09.290Z,95.434
2023-02-02T07:57:09.049Z,95.339
2023-02-02T07:58:08.987Z,95.402
2023-02-02T07:59:08.794Z,95.331
2023-02-02T08:00:08.853Z,95.291
2023-02-02T08:01:09.164Z,95.381
2023-02-02T08:02:09.011Z,95.413
2023-02-02T08:03:09.176Z,95.366
2023-02-02T08:05:08.795Z,95.436
2023-02-02T08:06:08.802Z,95.421
2023-02-02T08:07:08.516Z,95.322
2023-02-02T08:08:09.436Z,95.345
2023-02-02T08:09:09.268Z,95.318
2023-02-02T08:10:09.252Z,95.320
2023-02-02T08:11:08.979Z,95.375
2023-02-02T08:12:08.831Z,95.286
2023-02-02T08:13:08.849Z,95.232
2023-02-02T08:14:08.740Z,95.255
2023-02-02T08:15:09.147Z,95.305
2023-02-02T08:16:09.203Z,95.299
2023-02-02T08:17:09.155Z,95.280
2023-02-02T08:18:09.112Z,95.406
2023-02-02T08:19:09.009Z,95.270
2023-02-02T08:20:08.775Z,95.379
2023-02-02T08:21:08.864Z,95.335
2023-02-02T08:22:08.611Z,95.282
2023-02-02T08:23:09.511Z,95.209
2023-02-02T08:24:09.382Z,95.246
2023-02-02T08:25:09.176Z,95.221
2023-02-02T08:26:08.815Z,95.196
2023-02-02T08:27:08.778Z,95.194
2023-02-02T08:28:08.675Z,95.089
2023-02-02T08:29:08.562Z,95.112
2023-02-02T08:30:09.468Z,94.975
2023-02-02T08:31:08.777Z,94.967
2023-02-02T08:32:08.799Z,94.980
2023-02-02T08:33:08.503Z,94.999
2023-02-02T08:34:08.511Z,94.937
2023-02-02T08:35:08.935Z,94.950
2023-02-02T08:36:08.808Z,95.059
2023-02-02T08:37:08.509Z,95.034
2023-02-02T08:38:09.346Z,95.078
2023-02-02T08:39:08.972Z,94.978
2023-02-02T08:40:08.865Z,95.095
2023-02-02T08:41:08.976Z,95.041
2023-02-02T08:42:08.815Z,95.051
2023-02-02T08:43:12.303Z,95.123
2023-02-02T08:44:12.895Z,95.106
2023-02-02T08:46:23.197Z,94.858
2023-02-02T08:47:17.720Z,94.790
2023-02-02T08:48:22.208Z,94.744
2023-02-02T08:49:16.818Z,94.587
2023-02-02T08:50:16.748Z,94.616
2023-02-02T08:51:16.917Z,94.626
2023-02-02T08:52:16.746Z,94.748
2023-02-02T08:53:16.447Z,94.721
2023-02-02T08:54:17.267Z,94.692
2023-02-02T08:55:17.023Z,94.721
2023-02-02T08:56:16.858Z,94.799
2023-02-02T08:57:16.562Z,94.795
2023-02-02T08:58:17.236Z,94.860
2023-02-02T08:59:17.040Z,94.834
2023-02-02T09:00:16.920Z,94.868
2023-02-02T09:01:17.136Z,94.830
2023-02-02T09:02:17.366Z,94.750
2023-02-02T09:03:17.192Z,94.767
2023-02-02T09:04:17.106Z,94.828
2023-02-02T09:05:17.055Z,94.732
2023-02-02T09:06:17.176Z,94.732
2023-02-02T09:07:16.907Z,94.704
2023-02-02T09:08:16.607Z,94.605
2023-02-02T09:10:17.247Z,94.736
2023-02-02T09:11:17.095Z,94.711
2023-02-02T09:12:16.933Z,94.793
2023-02-02T09:13:16.719Z,94.793
2023-02-02T09:15:17.034Z,94.725
2023-02-02T09:16:16.969Z,94.694
2023-02-02T09:17:17.042Z,94.708
2023-02-02T09:18:16.771Z,94.748
2023-02-02T09:20:16.587Z,94.658
2023-02-02T09:22:17.178Z,94.729
2023-02-02T09:23:17.367Z,94.683
2023-02-02T09:25:17.410Z,94.811
2023-02-02T09:27:17.392Z,94.639
2023-02-02T09:28:17.179Z,94.546
2023-02-02T09:29:17.094Z,94.509
2023-02-02T09:30:17.032Z,94.431
2023-02-02T09:31:17.146Z,94.290
2023-02-02T09:32:17.179Z,94.338
2023-02-02T09:33:17.173Z,94.376
2023-02-02T09:35:17.092Z,94.357
2023-02-02T09:37:17.500Z,94.380
2023-02-02T09:38:17.391Z,94.410
2023-02-02T09:40:17.243Z,94.328
2023-02-02T09:41:17.196Z,94.317
2023-02-02T09:42:17.331Z,94.311
2023-02-02T09:43:17.449Z,94.252
2023-02-02T09:45:16.547Z,94.324
2023-02-02T09:46:17.341Z,94.319
2023-02-02T09:48:17.422Z,94.362
2023-02-02T09:49:17.693Z,94.330
2023-02-02T09:50:17.487Z,94.193
2023-02-02T09:51:17.576Z,94.076
2023-02-02T09:52:16.586Z,94.130
2023-02-02T09:53:17.357Z,94.177
2023-02-02T09:54:17.150Z,94.149
2023-02-02T09:56:16.785Z,94.122
2023-02-02T09:57:16.436Z,93.977
2023-02-02T09:59:24.728Z,93.901
2023-02-02T10:00:16.740Z,93.882
2023-02-02T10:01:16.727Z,93.949
2023-02-02T10:02:16.636Z,93.962
2023-02-02T10:04:17.460Z,94.082
2023-02-02T10:05:16.651Z,94.246
2023-02-02T10:06:17.450Z,94.172
2023-02-02T10:07:17.436Z,94.113
2023-02-02T10:09:16.718Z,94.284
2023-02-02T10:10:18.793Z,94.320
2023-02-02T10:11:16.668Z,94.217
2023-02-02T10:12:16.643Z,94.156
2023-02-02T10:13:16.613Z,93.983
2023-02-02T10:14:16.541Z,94.032
2023-02-02T10:15:16.654Z,93.895
2023-02-02T10:17:17.408Z,93.891
2023-02-02T10:18:17.206Z,93.949
2023-02-02T10:20:16.712Z,93.987
2023-02-02T10:21:16.729Z,94.195
2023-02-02T10:22:16.896Z,93.514
2023-02-02T10:23:16.543Z,93.250
2023-02-02T10:24:18.060Z,93.140
2023-02-02T10:25:17.941Z,93.596
2023-02-02T10:26:16.969Z,93.857
2023-02-02T10:28:16.969Z,93.634
2023-02-02T10:29:16.766Z,93.624
2023-02-02T10:31:21.741Z,93.912
2023-02-02T10:32:21.480Z,93.981
2023-02-02T10:33:21.415Z,94.134
2023-02-02T10:34:21.153Z,94.278
2023-02-02T10:35:25.960Z,94.139
2023-02-02T10:36:20.816Z,94.261
2023-02-02T10:37:20.708Z,94.116
2023-02-02T10:38:20.798Z,94.212
2023-02-02T10:39:21.134Z,94.166
2023-02-02T10:40:21.604Z,94.248
2023-02-02T10:41:20.686Z,94.317
2023-02-02T10:42:20.562Z,94.423
2023-02-02T10:43:21.255Z,94.280
2023-02-02T10:44:20.595Z,94.368
2023-02-02T10:45:20.498Z,94.458
2023-02-02T10:46:24.117Z,94.517
2023-02-02T10:47:21.215Z,94.475
2023-02-02T10:48:21.035Z,94.553
2023-02-02T10:49:21.671Z,94.551
2023-02-02T10:50:20.786Z,94.473
2023-02-02T10:51:20.796Z,94.429
2023-02-02T10:52:21.515Z,94.507
2023-02-02T10:53:21.484Z,94.532
2023-02-02T10:54:21.328Z,94.551
2023-02-02T10:56:25.962Z,94.687
2023-02-02T10:57:26.373Z,94.744
2023-02-02T10:58:26.288Z,94.792
2023-02-02T10:59:26.140Z,94.757
2023-02-02T11:00:27.203Z,94.605
2023-02-02T11:01:26.617Z,94.589
2023-02-02T11:02:30.524Z,94.629
2023-02-02T11:03:25.739Z,94.700
2023-02-02T11:04:25.656Z,94.740
2023-02-02T11:05:25.889Z,94.809
2023-02-02T11:06:25.788Z,94.849
2023-02-02T11:07:25.740Z,94.645
2023-02-02T11:08:25.667Z,94.622
2023-02-02T11:10:26.812Z,94.803
2023-02-02T11:11:26.699Z,94.805
2023-02-02T11:12:26.153Z,94.824
2023-02-02T11:13:26.411Z,94.824
2023-02-02T11:14:25.535Z,94.696
2023-02-02T11:15:26.178Z,94.759
2023-02-02T11:16:30.397Z,94.782
2023-02-02T11:17:26.174Z,94.755
2023-02-02T11:18:26.329Z,95.026
2023-02-02T11:20:26.703Z,94.881
2023-02-02T11:21:26.127Z,94.885
2023-02-02T11:22:26.209Z,94.923
2023-02-02T11:23:26.068Z,94.887
2023-02-02T11:24:26.691Z,94.927
2023-02-02T11:25:25.700Z,94.881
2023-02-02T11:26:25.524Z,94.759
2023-02-02T11:27:25.940Z,94.782
2023-02-02T11:28:26.328Z,94.862
2023-02-02T11:29:25.596Z,94.807
2023-02-02T11:30:27.062Z,94.738
2023-02-02T11:31:26.788Z,94.952
2023-02-02T11:32:26.072Z,94.923
2023-02-02T11:33:25.840Z,94.881
2023-02-02T11:34:26.316Z,94.782
2023-02-02T11:35:26.500Z,94.729
2023-02-02T11:36:25.678Z,94.834
2023-02-02T11:37:30.727Z,94.629
2023-02-02T11:38:25.584Z,94.687
2023-02-02T11:39:26.454Z,94.702
2023-02-02T11:40:27.410Z,94.668
2023-02-02T11:41:25.735Z,94.631
2023-02-02T11:42:28.607Z,94.637
2023-02-02T11:43:25.582Z,94.622
2023-02-02T11:44:26.462Z,94.692
2023-02-02T11:45:25.771Z,94.586
2023-02-02T11:46:26.009Z,94.656
2023-02-02T11:47:26.070Z,94.591
2023-02-02T11:48:26.155Z,94.551
2023-02-02T11:49:26.348Z,94.513
2023-02-02T11:50:26.830Z,94.498
2023-02-02T11:51:26.297Z,94.597
2023-02-02T11:52:26.772Z,94.563
2023-02-02T11:53:26.028Z,94.351
2023-02-02T11:54:25.789Z,94.286
2023-02-02T11:55:25.759Z,94.301
2023-02-02T11:56:25.603Z,94.397
2023-02-02T11:57:25.624Z,94.319
2023-02-02T11:58:25.577Z,94.408
2023-02-02T11:59:25.836Z,94.404
2023-02-02T12:00:26.258Z,94.422
2023-02-02T12:01:26.424Z,94.328
2023-02-02T12:02:25.783Z,94.277
2023-02-02T12:03:26.189Z,94.330
2023-02-02T12:04:26.647Z,94.446
2023-02-02T12:05:26.492Z,94.490
2023-02-02T12:06:26.463Z,94.311
2023-02-02T12:07:26.354Z,94.397
2023-02-02T12:08:26.258Z,94.509
2023-02-02T12:09:26.435Z,94.496
2023-02-02T12:10:27.395Z,94.288
2023-02-02T12:11:25.691Z,94.620
2023-02-02T12:12:25.685Z,94.771
2023-02-02T12:13:25.810Z,94.601
2023-02-02T12:14:25.843Z,94.528
2023-02-02T12:15:25.743Z,94.725
2023-02-02T12:16:28.390Z,94.303
2023-02-02T12:17:26.411Z,94.471
2023-02-02T12:18:25.572Z,94.443
2023-02-02T12:19:30.151Z,94.624
2023-02-02T12:20:26.747Z,94.662
2023-02-02T12:22:26.737Z,94.919
2023-02-02T12:23:26.208Z,94.956
2023-02-02T12:24:25.959Z,95.026
2023-02-02T12:25:26.931Z,94.778
2023-02-02T12:26:25.540Z,95.116
2023-02-02T12:27:25.398Z,94.484
2023-02-02T12:28:26.423Z,94.929
2023-02-02T12:29:26.327Z,94.816
2023-02-02T12:30:27.968Z,94.681
2023-02-02T12:31:25.736Z,94.174
2023-02-02T12:32:25.762Z,94.195
2023-02-02T12:33:25.708Z,94.401
2023-02-02T12:34:25.555Z,94.340
2023-02-02T12:35:26.363Z,94.637
2023-02-02T12:36:26.426Z,94.750
2023-02-02T12:37:26.443Z,94.704
2023-02-02T12:38:26.363Z,94.996
2023-02-02T12:40:27.297Z,93.594
2023-02-02T12:41:25.940Z,94.521
2023-02-02T12:42:26.337Z,93.771
2023-02-02T12:43:25.994Z,93.363
2023-02-02T12:44:25.939Z,93.693
2023-02-02T12:45:25.811Z,93.924
2023-02-02T12:46:26.038Z,94.145
2023-02-02T12:47:26.027Z,94.175
2023-02-02T12:48:26.160Z,94.328
2023-02-02T12:49:26.219Z,94.458
2023-02-02T12:50:26.534Z,94.681
2023-02-02T12:51:25.957Z,93.369
2023-02-02T12:52:25.693Z,93.378
2023-02-02T12:53:26.945Z,93.876
2023-02-02T12:54:43.983Z,94.086
2023-02-02T12:56:35.116Z,94.278
2023-02-02T12:57:33.275Z,94.034
2023-02-02T12:58:34.671Z,94.044